KSRQ/SRQ METAR and TAF weather

Enter ICAO airport designator
Station Type Date Time Source
KSRQ METAR 2020/04/05 05:53 UTC NOAA

KSRQ 050553Z AUTO 09003KT 10SM CLR 20/18 A2992 RMK AO2 SLP129 T02000183 10239 20200 58005


Station Type Date Time Source
KSRQ Decoded METAR 2020/04/05 05:53 UTC NOAA

SARASOTA/BRADENTON INTERNATIONAL ., FL, United States (KSRQ) 27-24N 082-33W 18M
Apr 05, 2020 - 01:53 AM EDT / 2020.04.05 0553 UTC
Wind: from the E (090 degrees) at 3 MPH (3 KT):0
Visibility: 10 mile(s):0
Sky conditions: clear
Temperature: 68.0 F (20.0 C)
Dew Point: 64.9 F (18.3 C)
Relative Humidity: 89%
Pressure (altimeter): 29.92 in. Hg (1013 hPa)
Pressure tendency: 0.01 inches (0.5 hPa) lower than three hours ago
ob: KSRQ 050553Z AUTO 09003KT 10SM CLR 20/18 A2992 RMK AO2 SLP129 T02000183 10239 20200 58005
cycle: 6

Station Type Date Time Source
KSRQ TAF 2020/04/05 06:40 UTC NOAA

TAF KSRQ 050537Z 0506/0606 VRB04KT P6SM FEW025 BKN150
FM051500 34008KT P6SM SCT025 BKN080
FM051800 02012KT P6SM VCSH SCT007 BKN020 OVC050
FM060000 07006KT P6SM VCSH SCT007 BKN020

Example: see airport list